createdAt,value
2022-11-12T00:01:19.291Z,10.40
2022-11-12T00:03:47.482Z,10.40
2022-11-12T00:06:15.662Z,10.30
2022-11-12T00:08:43.785Z,10.30
2022-11-12T00:11:13.218Z,10.30
2022-11-12T00:13:41.292Z,10.30
2022-11-12T00:16:09.828Z,10.30
2022-11-12T00:18:37.974Z,10.20
2022-11-12T00:21:06.242Z,10.20
2022-11-12T00:23:34.295Z,10.10
2022-11-12T00:26:03.099Z,10.10
2022-11-12T00:28:37.750Z,10.10
2022-11-12T00:31:11.389Z,10.00
2022-11-12T00:33:43.691Z,10.00
2022-11-12T00:36:12.105Z,9.90
2022-11-12T00:38:41.241Z,9.90
2022-11-12T00:41:09.417Z,9.90
2022-11-12T00:43:39.106Z,9.90
2022-11-12T00:46:07.137Z,9.90
2022-11-12T00:48:35.263Z,9.80
2022-11-12T00:51:04.899Z,9.80
2022-11-12T00:53:33.289Z,9.80
2022-11-12T00:56:02.651Z,9.80
2022-11-12T00:58:31.618Z,9.70
2022-11-12T01:01:07.455Z,9.70
2022-11-12T01:03:36.064Z,9.70
2022-11-12T01:06:05.128Z,9.70
2022-11-12T01:08:33.396Z,9.70
2022-11-12T01:11:07.326Z,9.70
2022-11-12T01:13:39.959Z,9.70
2022-11-12T01:16:16.362Z,9.70
2022-11-12T01:18:45.061Z,9.70
2022-11-12T01:21:14.547Z,9.70
2022-11-12T01:23:43.810Z,9.70
2022-11-12T01:26:14.296Z,9.70
2022-11-12T01:28:43.340Z,9.60
2022-11-12T01:31:15.132Z,9.70
2022-11-12T01:33:44.110Z,9.60
2022-11-12T01:36:14.692Z,9.60
2022-11-12T01:38:44.260Z,9.60
2022-11-12T01:41:14.396Z,9.60
2022-11-12T01:43:42.666Z,9.60
2022-11-12T01:46:18.611Z,9.60
2022-11-12T01:48:52.911Z,9.60
2022-11-12T01:51:22.976Z,9.60
2022-11-12T01:53:57.034Z,9.60
2022-11-12T01:56:28.713Z,9.50
2022-11-12T01:59:02.470Z,9.50
2022-11-12T02:01:32.588Z,9.50
2022-11-12T02:04:00.730Z,9.50
2022-11-12T02:06:28.916Z,9.50
2022-11-12T02:08:57.390Z,9.50
2022-11-12T02:11:25.525Z,9.40
2022-11-12T02:14:01.373Z,9.40
2022-11-12T02:16:34.035Z,9.40
2022-11-12T02:19:03.017Z,9.50
2022-11-12T02:21:34.334Z,9.40
2022-11-12T02:24:04.137Z,9.40
2022-11-12T02:26:35.119Z,9.40
2022-11-12T02:29:03.773Z,9.40
2022-11-12T02:31:32.047Z,9.40
2022-11-12T02:34:00.315Z,9.40
2022-11-12T02:36:28.851Z,9.40
2022-11-12T02:38:58.809Z,9.30
2022-11-12T02:41:26.988Z,9.30
2022-11-12T02:43:55.106Z,9.30
2022-11-12T02:46:23.706Z,9.20
2022-11-12T02:48:51.798Z,9.20
2022-11-12T02:51:19.990Z,9.20
2022-11-12T02:53:48.079Z,9.20
2022-11-12T02:56:17.486Z,9.20
2022-11-12T02:58:45.548Z,9.20
2022-11-12T03:01:13.701Z,9.20
2022-11-12T03:03:41.826Z,9.20
2022-11-12T03:06:09.879Z,9.20
2022-11-12T03:08:37.980Z,9.10
2022-11-12T03:11:10.871Z,9.10
2022-11-12T03:13:40.653Z,9.10
2022-11-12T03:16:09.498Z,9.00
2022-11-12T03:18:38.249Z,9.00
2022-11-12T03:21:06.513Z,9.00
2022-11-12T03:23:34.631Z,9.00
2022-11-12T03:26:05.163Z,9.00
2022-11-12T03:28:34.369Z,9.00
2022-11-12T03:31:03.802Z,9.00
2022-11-12T03:33:31.985Z,9.00
2022-11-12T03:36:00.132Z,9.00
2022-11-12T03:38:28.570Z,8.90
2022-11-12T03:40:56.996Z,8.90
2022-11-12T03:43:25.285Z,8.90
2022-11-12T03:45:53.343Z,8.90
2022-11-12T03:48:23.037Z,8.90
2022-11-12T03:50:51.508Z,8.90
2022-11-12T03:53:19.639Z,8.80
2022-11-12T03:55:47.693Z,8.80
2022-11-12T03:58:15.796Z,8.90
2022-11-12T04:00:43.875Z,8.80
2022-11-12T04:03:12.012Z,8.80
2022-11-12T04:05:59.161Z,8.80
2022-11-12T04:08:39.237Z,8.80
2022-11-12T04:11:09.543Z,8.80
2022-11-12T04:13:38.448Z,8.80
2022-11-12T04:16:26.633Z,8.80
2022-11-12T04:19:14.052Z,8.70
2022-11-12T04:21:57.169Z,8.80
2022-11-12T04:24:44.846Z,8.80
2022-11-12T04:27:16.059Z,8.70
2022-11-12T04:30:02.743Z,8.70
2022-11-12T04:32:32.325Z,8.70
2022-11-12T04:35:00.766Z,8.70
2022-11-12T04:37:44.129Z,8.60
2022-11-12T04:40:31.480Z,8.60
2022-11-12T04:43:17.341Z,8.60
2022-11-12T04:45:47.459Z,8.60
2022-11-12T04:48:16.267Z,8.60
2022-11-12T04:50:46.348Z,8.60
2022-11-12T04:53:16.414Z,8.60
2022-11-12T04:55:44.552Z,8.50
2022-11-12T04:58:12.639Z,8.50
2022-11-12T05:00:40.676Z,8.50
2022-11-12T05:03:08.854Z,8.50
2022-11-12T05:05:37.100Z,8.50
2022-11-12T05:08:05.351Z,8.50
2022-11-12T05:10:34.833Z,8.40
2022-11-12T05:13:02.930Z,8.50
2022-11-12T05:15:30.997Z,8.40
2022-11-12T05:17:59.068Z,8.40
2022-11-12T05:20:28.212Z,8.40
2022-11-12T05:23:11.487Z,8.30
2022-11-12T05:25:40.917Z,8.30
2022-11-12T05:28:08.984Z,8.30
2022-11-12T05:30:37.063Z,8.30
2022-11-12T05:33:05.352Z,8.30
2022-11-12T05:35:33.397Z,8.20
2022-11-12T05:38:01.505Z,8.20
2022-11-12T05:40:29.582Z,8.20
2022-11-12T05:42:58.991Z,8.20
2022-11-12T05:45:27.060Z,8.20
2022-11-12T05:47:55.143Z,8.20
2022-11-12T05:50:23.195Z,8.20
2022-11-12T05:52:51.292Z,8.10
2022-11-12T05:55:19.394Z,8.10
2022-11-12T05:57:47.450Z,8.00
2022-11-12T06:00:18.136Z,8.00
2022-11-12T06:02:46.282Z,8.00
2022-11-12T06:05:14.453Z,8.00
2022-11-12T06:07:42.513Z,7.90
2022-11-12T06:10:13.687Z,7.90
2022-11-12T06:12:44.176Z,7.90
2022-11-12T06:15:12.295Z,7.90
2022-11-12T06:17:42.552Z,7.90
2022-11-12T06:20:11.399Z,7.90
2022-11-12T06:22:39.497Z,7.90
2022-11-12T06:25:08.093Z,7.90
2022-11-12T06:27:36.250Z,7.80
2022-11-12T06:30:05.090Z,7.80
2022-11-12T06:32:33.227Z,7.80
2022-11-12T06:35:02.738Z,7.80
2022-11-12T06:37:30.881Z,7.70
2022-11-12T06:39:59.012Z,7.70
2022-11-12T06:42:27.208Z,7.80
2022-11-12T06:44:55.311Z,7.70
2022-11-12T06:47:23.421Z,7.70
2022-11-12T06:49:51.478Z,7.80
2022-11-12T06:52:20.887Z,7.70
2022-11-12T06:54:48.991Z,7.70
2022-11-12T06:57:17.067Z,7.70
2022-11-12T06:59:45.138Z,7.70
2022-11-12T07:02:13.577Z,7.60
2022-11-12T07:04:41.675Z,7.60
2022-11-12T07:07:11.054Z,7.60
2022-11-12T07:09:40.710Z,7.60
2022-11-12T07:12:09.240Z,7.60
2022-11-12T07:14:37.372Z,7.60
2022-11-12T07:17:05.475Z,7.60
2022-11-12T07:19:33.509Z,7.60
2022-11-12T07:22:01.633Z,7.60
2022-11-12T07:24:29.674Z,7.60
2022-11-12T07:26:59.134Z,7.60
2022-11-12T07:29:46.343Z,7.60
2022-11-12T07:32:15.480Z,7.70
2022-11-12T07:34:43.589Z,7.70
2022-11-12T07:37:12.696Z,7.70
2022-11-12T07:39:40.776Z,7.70
2022-11-12T07:42:10.265Z,7.80
2022-11-12T07:44:38.366Z,7.80
2022-11-12T07:47:06.443Z,7.80
2022-11-12T07:49:34.486Z,7.80
2022-11-12T07:52:02.560Z,7.90
2022-11-12T07:54:30.635Z,7.90
2022-11-12T07:56:58.755Z,7.90
2022-11-12T07:59:28.136Z,7.90
2022-11-12T08:01:57.475Z,8.00
2022-11-12T08:04:25.634Z,8.00
2022-11-12T08:06:53.928Z,8.00
2022-11-12T08:09:22.116Z,8.10
2022-11-12T08:11:50.266Z,8.10
2022-11-12T08:14:18.432Z,8.20
2022-11-12T08:16:47.882Z,8.20
2022-11-12T08:19:16.253Z,8.30
2022-11-12T08:21:44.791Z,8.30
2022-11-12T08:24:13.164Z,8.40
2022-11-12T08:26:41.300Z,8.50
2022-11-12T08:29:10.602Z,8.60
2022-11-12T08:31:38.900Z,8.70
2022-11-12T08:34:15.078Z,8.80
2022-11-12T08:36:45.476Z,8.90
2022-11-12T08:39:13.638Z,9.00
2022-11-12T08:41:41.763Z,9.10
2022-11-12T08:44:09.895Z,9.20
2022-11-12T08:46:38.042Z,9.30
2022-11-12T08:49:08.534Z,9.40
2022-11-12T08:51:36.714Z,9.40
2022-11-12T08:54:05.062Z,9.50
2022-11-12T08:56:33.851Z,9.50
2022-11-12T08:59:06.326Z,9.50
2022-11-12T09:01:35.800Z,9.60
2022-11-12T09:04:04.469Z,9.70
2022-11-12T09:06:34.109Z,9.70
2022-11-12T09:09:02.332Z,9.70
2022-11-12T09:11:30.425Z,9.80
2022-11-12T09:13:58.568Z,9.90
2022-11-12T09:16:26.687Z,9.90
2022-11-12T09:19:16.601Z,10.00
2022-11-12T09:21:46.830Z,10.10
2022-11-12T09:24:15.165Z,10.10
2022-11-12T09:26:43.239Z,10.20
2022-11-12T09:29:12.353Z,10.20
2022-11-12T09:31:41.463Z,10.40
2022-11-12T09:34:09.596Z,10.40
2022-11-12T09:36:39.975Z,10.50
2022-11-12T09:39:09.608Z,10.50
2022-11-12T09:41:40.600Z,10.50
2022-11-12T09:44:12.268Z,10.60
2022-11-12T09:46:45.631Z,10.60
2022-11-12T09:49:17.193Z,10.70
2022-11-12T09:51:50.518Z,10.70
2022-11-12T09:54:24.097Z,10.80
2022-11-12T09:56:53.924Z,10.80
2022-11-12T09:59:23.219Z,10.90
2022-11-12T10:02:00.837Z,10.90
2022-11-12T10:04:59.733Z,11.00
2022-11-12T10:07:45.222Z,11.10
2022-11-12T10:10:19.145Z,11.20
2022-11-12T10:13:01.200Z,11.30
2022-11-12T10:16:01.034Z,11.30
2022-11-12T10:18:51.670Z,11.40
2022-11-12T10:21:30.384Z,11.50
2022-11-12T10:23:59.331Z,11.50
2022-11-12T10:26:28.877Z,11.60
2022-11-12T10:29:01.988Z,11.60
2022-11-12T10:31:30.461Z,11.70
2022-11-12T10:34:15.517Z,11.70
2022-11-12T10:36:47.221Z,11.80
2022-11-12T10:39:37.388Z,11.80
2022-11-12T10:42:10.004Z,11.90
2022-11-12T10:44:43.068Z,11.90
2022-11-12T10:47:24.914Z,12.00
2022-11-12T10:50:16.198Z,12.00
2022-11-12T10:52:59.292Z,12.10
2022-11-12T10:55:29.427Z,12.20
2022-11-12T10:58:16.631Z,12.20
2022-11-12T11:01:00.122Z,12.20
2022-11-12T11:03:32.032Z,12.30
2022-11-12T11:06:02.730Z,12.30
2022-11-12T11:08:39.968Z,12.40
2022-11-12T11:11:32.072Z,12.50
2022-11-12T11:14:31.678Z,12.50
2022-11-12T11:17:01.662Z,12.60
2022-11-12T11:19:36.488Z,12.70
2022-11-12T11:22:29.621Z,12.70
2022-11-12T11:25:10.149Z,12.70
2022-11-12T11:27:47.338Z,12.80
2022-11-12T11:30:20.260Z,12.80
2022-11-12T11:33:15.909Z,12.90
2022-11-12T11:36:10.733Z,12.90
2022-11-12T11:38:52.926Z,13.00
2022-11-12T11:41:46.059Z,13.10
2022-11-12T11:44:27.634Z,13.10
2022-11-12T11:47:07.342Z,13.10
2022-11-12T11:49:55.127Z,13.20
2022-11-12T11:52:38.857Z,13.30
2022-11-12T11:55:23.200Z,13.30
2022-11-12T11:57:59.312Z,13.30
2022-11-12T12:00:31.745Z,13.40
2022-11-12T12:03:21.088Z,13.40
2022-11-12T12:06:10.371Z,13.50
2022-11-12T12:08:53.349Z,13.60
2022-11-12T12:11:28.740Z,13.60
2022-11-12T12:14:12.641Z,13.70
2022-11-12T12:16:51.606Z,13.70
2022-11-12T12:19:36.290Z,13.80
2022-11-12T12:22:10.171Z,13.80
2022-11-12T12:24:47.196Z,13.90
2022-11-12T12:27:20.148Z,14.00
2022-11-12T12:29:51.809Z,14.00
2022-11-12T12:32:24.670Z,14.10
2022-11-12T12:34:59.817Z,14.10
2022-11-12T12:37:36.221Z,14.10
2022-11-12T12:40:11.740Z,14.20
2022-11-12T12:42:47.267Z,14.30
2022-11-12T12:45:37.132Z,14.40
2022-11-12T12:48:08.575Z,14.40
2022-11-12T12:50:40.801Z,14.40
2022-11-12T12:53:18.873Z,14.50
2022-11-12T12:55:50.143Z,14.50
2022-11-12T12:58:24.860Z,14.50
2022-11-12T13:00:56.282Z,14.60
2022-11-12T13:03:54.467Z,14.60
2022-11-12T13:06:29.622Z,14.70
2022-11-12T13:09:02.773Z,14.70
2022-11-12T13:12:11.544Z,14.70
2022-11-12T13:14:59.253Z,14.70
2022-11-12T13:17:51.163Z,14.80
2022-11-12T13:20:36.608Z,14.80
2022-11-12T13:23:11.137Z,14.90
2022-11-12T13:25:40.011Z,14.90
2022-11-12T13:28:14.132Z,14.90
2022-11-12T13:31:01.344Z,15.00
2022-11-12T13:33:38.240Z,15.00
2022-11-12T13:36:27.708Z,15.00
2022-11-12T13:39:12.960Z,15.10
2022-11-12T13:41:58.455Z,15.10
2022-11-12T13:44:28.647Z,15.10
2022-11-12T13:46:57.722Z,15.20
2022-11-12T13:49:25.904Z,15.20
2022-11-12T13:51:56.563Z,15.30
2022-11-12T13:54:35.003Z,15.30
2022-11-12T13:57:32.146Z,15.40
2022-11-12T14:00:11.735Z,15.40
2022-11-12T14:02:43.841Z,15.50
2022-11-12T14:05:15.651Z,15.50
2022-11-12T14:07:52.986Z,15.60
2022-11-12T14:10:35.485Z,15.60
2022-11-12T14:13:21.689Z,15.80
2022-11-12T14:16:02.278Z,16.00
2022-11-12T14:18:45.599Z,16.20
2022-11-12T14:21:17.530Z,16.40
2022-11-12T14:23:47.694Z,16.50
2022-11-12T14:26:35.456Z,16.60
2022-11-12T14:29:04.212Z,16.70
2022-11-12T14:31:32.725Z,16.70
2022-11-12T14:34:22.175Z,16.80
2022-11-12T14:36:50.607Z,16.80
2022-11-12T14:39:18.653Z,16.90
2022-11-12T14:41:49.176Z,17.10
2022-11-12T14:44:21.160Z,17.20
2022-11-12T14:46:51.606Z,17.40
2022-11-12T14:49:24.913Z,17.40
2022-11-12T14:51:56.050Z,17.40
2022-11-12T14:54:29.835Z,17.40
2022-11-12T14:57:01.721Z,17.50
2022-11-12T14:59:30.026Z,17.50
2022-11-12T15:02:29.720Z,17.50
2022-11-12T15:05:01.655Z,17.50
2022-11-12T15:07:32.190Z,17.30
2022-11-12T15:10:01.098Z,17.20
2022-11-12T15:12:34.035Z,17.00
2022-11-12T15:15:09.646Z,16.80
2022-11-12T15:17:38.886Z,16.70
2022-11-12T15:20:13.852Z,16.60
2022-11-12T15:22:42.189Z,16.50
2022-11-12T15:25:21.655Z,16.40
2022-11-12T15:27:51.752Z,16.30
2022-11-12T15:30:24.173Z,16.10
2022-11-12T15:33:08.345Z,16.10
2022-11-12T15:35:38.330Z,16.00
2022-11-12T15:38:11.779Z,16.00
2022-11-12T15:40:45.506Z,15.80
2022-11-12T15:43:20.713Z,15.70
2022-11-12T15:45:50.484Z,15.60
2022-11-12T15:48:18.910Z,15.50
2022-11-12T15:50:47.391Z,15.40
2022-11-12T15:53:16.328Z,15.40
2022-11-12T15:55:46.215Z,15.30
2022-11-12T15:58:18.730Z,15.20
2022-11-12T16:00:47.755Z,15.20
2022-11-12T16:03:18.149Z,15.10
2022-11-12T16:05:46.933Z,15.00
2022-11-12T16:08:15.446Z,15.00
2022-11-12T16:10:45.558Z,14.90
2022-11-12T16:13:17.125Z,14.90
2022-11-12T16:15:46.634Z,14.80
2022-11-12T16:18:14.737Z,14.70
2022-11-12T16:20:42.862Z,14.70
2022-11-12T16:23:10.984Z,14.60
2022-11-12T16:25:42.263Z,14.70
2022-11-12T16:28:15.209Z,14.60
2022-11-12T16:30:44.021Z,14.60
2022-11-12T16:33:14.596Z,14.50
2022-11-12T16:35:42.698Z,14.50
2022-11-12T16:38:14.931Z,14.40
2022-11-12T16:40:44.277Z,14.40
2022-11-12T16:43:12.553Z,14.30
2022-11-12T16:45:42.769Z,14.30
2022-11-12T16:48:19.137Z,14.30
2022-11-12T16:50:47.531Z,14.20
2022-11-12T16:53:15.832Z,14.20
2022-11-12T16:55:44.129Z,14.10
2022-11-12T16:58:14.215Z,14.10
2022-11-12T17:00:43.023Z,14.10
2022-11-12T17:03:13.826Z,14.00
2022-11-12T17:05:41.993Z,14.00
2022-11-12T17:08:10.823Z,14.00
2022-11-12T17:10:38.971Z,14.00
2022-11-12T17:13:06.980Z,13.90
2022-11-12T17:15:35.093Z,13.90
2022-11-12T17:18:03.227Z,13.90
2022-11-12T17:20:32.905Z,13.80
2022-11-12T17:23:00.956Z,13.80
2022-11-12T17:25:29.163Z,13.80
2022-11-12T17:27:58.273Z,13.80
2022-11-12T17:30:26.312Z,13.80
2022-11-12T17:32:54.409Z,13.70
2022-11-12T17:35:22.583Z,13.70
2022-11-12T17:37:52.164Z,13.70
2022-11-12T17:40:20.312Z,13.70
2022-11-12T17:42:48.447Z,13.70
2022-11-12T17:45:16.639Z,13.70
2022-11-12T17:47:44.755Z,13.60
2022-11-12T17:50:12.801Z,13.60
2022-11-12T17:52:40.885Z,13.50
2022-11-12T17:55:10.606Z,13.50
2022-11-12T17:57:38.652Z,13.50
2022-11-12T18:00:08.085Z,13.50
2022-11-12T18:02:36.180Z,13.50
2022-11-12T18:05:04.601Z,13.40
2022-11-12T18:07:32.795Z,13.40
2022-11-12T18:10:00.901Z,13.40
2022-11-12T18:12:30.448Z,13.40
2022-11-12T18:14:58.587Z,13.40
2022-11-12T18:17:26.669Z,13.30
2022-11-12T18:19:54.729Z,13.30
2022-11-12T18:22:22.816Z,13.30
2022-11-12T18:24:52.661Z,13.20
2022-11-12T18:27:20.867Z,13.20
2022-11-12T18:29:50.335Z,13.20
2022-11-12T18:32:18.447Z,13.20
2022-11-12T18:34:46.572Z,13.20
2022-11-12T18:37:15.050Z,13.20
2022-11-12T18:39:43.180Z,13.10
2022-11-12T18:42:11.330Z,13.10
2022-11-12T18:44:39.389Z,13.10
2022-11-12T18:47:08.827Z,13.10
2022-11-12T18:49:36.875Z,13.10
2022-11-12T18:52:05.224Z,13.10
2022-11-12T18:54:33.342Z,13.10
2022-11-12T18:57:01.427Z,13.00
2022-11-12T18:59:32.485Z,13.00
2022-11-12T19:02:01.269Z,13.00
2022-11-12T19:04:30.782Z,12.90
2022-11-12T19:06:58.872Z,13.00
2022-11-12T19:09:28.082Z,12.90
2022-11-12T19:11:56.274Z,12.90
2022-11-12T19:14:24.588Z,12.90
2022-11-12T19:16:52.683Z,12.80
2022-11-12T19:19:20.888Z,12.90
2022-11-12T19:21:50.433Z,12.80
2022-11-12T19:24:18.741Z,12.80
2022-11-12T19:26:46.923Z,12.80
2022-11-12T19:29:15.019Z,12.80
2022-11-12T19:31:43.095Z,12.80
2022-11-12T19:34:11.398Z,12.80
2022-11-12T19:36:39.503Z,12.80
2022-11-12T19:39:10.339Z,12.80
2022-11-12T19:41:38.481Z,12.80
2022-11-12T19:44:06.969Z,12.80
2022-11-12T19:46:35.028Z,12.80
2022-11-12T19:49:03.254Z,12.70
2022-11-12T19:51:31.893Z,12.70
2022-11-12T19:53:59.986Z,12.70
2022-11-12T19:56:30.479Z,12.70
2022-11-12T19:58:58.601Z,12.60
2022-11-12T20:01:26.902Z,12.60
2022-11-12T20:03:55.078Z,12.60
2022-11-12T20:06:25.506Z,12.60
2022-11-12T20:08:54.335Z,12.60
2022-11-12T20:11:22.473Z,12.60
2022-11-12T20:13:54.789Z,12.50
2022-11-12T20:16:25.857Z,12.50
2022-11-12T20:18:55.425Z,12.50
2022-11-12T20:21:23.707Z,12.50
2022-11-12T20:23:51.884Z,12.40
2022-11-12T20:26:20.074Z,12.40
2022-11-12T20:28:48.323Z,12.40
2022-11-12T20:31:20.645Z,12.40
2022-11-12T20:33:49.896Z,12.30
2022-11-12T20:36:20.655Z,12.30
2022-11-12T20:38:50.101Z,12.30
2022-11-12T20:41:20.212Z,12.20
2022-11-12T20:43:48.636Z,12.20
2022-11-12T20:46:18.081Z,12.20
2022-11-12T20:48:46.236Z,12.20
2022-11-12T20:51:23.722Z,12.20
2022-11-12T20:53:58.764Z,12.10
2022-11-12T20:56:29.269Z,12.10
2022-11-12T20:58:57.820Z,12.10
2022-11-12T21:01:29.058Z,12.10
2022-11-12T21:03:58.219Z,12.00
2022-11-12T21:06:28.379Z,12.00
2022-11-12T21:08:59.004Z,12.00
2022-11-12T21:11:27.114Z,11.90
2022-11-12T21:13:55.367Z,11.90
2022-11-12T21:16:23.704Z,11.90
2022-11-12T21:18:53.120Z,11.90
2022-11-12T21:21:21.586Z,11.80
2022-11-12T21:23:51.017Z,11.80
2022-11-12T21:26:20.726Z,11.80
2022-11-12T21:28:51.185Z,11.70
2022-11-12T21:31:20.921Z,11.70
2022-11-12T21:33:54.598Z,11.70
2022-11-12T21:36:23.408Z,11.70
2022-11-12T21:38:51.484Z,11.70
2022-11-12T21:41:21.899Z,11.70
2022-11-12T21:43:50.481Z,11.60
2022-11-12T21:46:22.153Z,11.60
2022-11-12T21:48:54.718Z,11.60
2022-11-12T21:51:26.507Z,11.60
2022-11-12T21:53:55.505Z,11.60
2022-11-12T21:56:23.931Z,11.60
2022-11-12T21:58:53.209Z,11.60
2022-11-12T22:01:25.072Z,11.50
2022-11-12T22:03:54.811Z,11.50
2022-11-12T22:06:26.014Z,11.50
2022-11-12T22:08:54.818Z,11.50
2022-11-12T22:11:23.845Z,11.50
2022-11-12T22:13:52.213Z,11.50
2022-11-12T22:16:22.194Z,11.50
2022-11-12T22:18:52.053Z,11.50
2022-11-12T22:21:22.762Z,11.50
2022-11-12T22:23:52.525Z,11.50
2022-11-12T22:26:22.861Z,11.50
2022-11-12T22:28:51.295Z,11.40
2022-11-12T22:31:22.769Z,11.40
2022-11-12T22:33:51.461Z,11.40
2022-11-12T22:36:21.777Z,11.40
2022-11-12T22:38:52.800Z,11.40
2022-11-12T22:41:23.294Z,11.40
2022-11-12T22:43:52.984Z,11.30
2022-11-12T22:46:24.014Z,11.30
2022-11-12T22:48:52.359Z,11.30
2022-11-12T22:51:22.675Z,11.20
2022-11-12T22:53:56.248Z,11.20
2022-11-12T22:56:25.320Z,11.20
2022-11-12T22:58:53.806Z,11.20
2022-11-12T23:01:24.937Z,11.10
2022-11-12T23:03:59.200Z,11.00
2022-11-12T23:06:31.024Z,11.10
2022-11-12T23:09:01.643Z,11.10
2022-11-12T23:11:30.086Z,11.10
2022-11-12T23:13:58.552Z,11.10
2022-11-12T23:16:29.434Z,11.10
2022-11-12T23:18:58.225Z,11.10
2022-11-12T23:21:28.384Z,11.10
2022-11-12T23:23:58.591Z,11.10
2022-11-12T23:26:30.838Z,11.00
2022-11-12T23:28:58.999Z,11.00
2022-11-12T23:31:29.098Z,11.00
2022-11-12T23:33:58.723Z,11.00
2022-11-12T23:36:27.983Z,11.00
2022-11-12T23:38:57.131Z,10.90
2022-11-12T23:41:27.026Z,10.90
2022-11-12T23:43:58.408Z,10.90
2022-11-12T23:46:26.706Z,10.90
2022-11-12T23:48:54.966Z,10.90
2022-11-12T23:51:23.683Z,10.90
2022-11-12T23:53:51.787Z,10.80
2022-11-12T23:56:20.542Z,10.80
2022-11-12T23:58:49.066Z,10.80
